createdAt,value
2018-05-25T00:02:26.543Z,49.20
2018-05-25T00:04:54.812Z,49.10
2018-05-25T00:07:23.043Z,49.30
2018-05-25T00:09:51.293Z,49.40
2018-05-25T00:12:19.588Z,49.60
2018-05-25T00:14:47.820Z,49.70
2018-05-25T00:17:16.760Z,50.00
2018-05-25T00:19:45.033Z,50.10
2018-05-25T00:22:13.271Z,50.30
2018-05-25T00:24:41.976Z,50.40
2018-05-25T00:27:10.188Z,50.40
2018-05-25T00:29:38.455Z,50.40
2018-05-25T00:32:06.697Z,50.60
2018-05-25T00:34:34.968Z,50.50
2018-05-25T00:37:03.212Z,50.60
2018-05-25T00:39:32.264Z,50.60
2018-05-25T00:42:00.519Z,50.60
2018-05-25T00:44:28.782Z,50.60
2018-05-25T00:46:57.028Z,50.50
2018-05-25T00:49:26.044Z,50.50
2018-05-25T00:51:54.297Z,50.50
2018-05-25T00:54:22.576Z,50.50
2018-05-25T00:56:51.593Z,50.60
2018-05-25T00:59:19.885Z,50.50
2018-05-25T01:01:48.136Z,50.70
2018-05-25T01:04:16.394Z,50.70
2018-05-25T01:06:45.392Z,50.90
2018-05-25T01:09:14.425Z,50.90
2018-05-25T01:11:42.658Z,50.90
2018-05-25T01:14:10.910Z,51.00
2018-05-25T01:16:39.154Z,51.30
2018-05-25T01:19:07.417Z,51.40
2018-05-25T01:21:35.671Z,51.40
2018-05-25T01:24:04.668Z,51.40
2018-05-25T01:26:33.710Z,51.60
2018-05-25T01:29:01.957Z,51.50
2018-05-25T01:31:30.290Z,51.60
2018-05-25T01:33:59.285Z,51.60
2018-05-25T01:36:27.515Z,51.60
2018-05-25T01:38:55.775Z,51.50
2018-05-25T01:41:24.015Z,51.60
2018-05-25T01:43:52.269Z,51.60
2018-05-25T01:46:20.534Z,51.70
2018-05-25T01:48:48.794Z,51.70
2018-05-25T01:51:17.037Z,52.00
2018-05-25T01:53:46.060Z,51.90
2018-05-25T01:56:14.355Z,51.90
2018-05-25T01:58:42.557Z,51.90
2018-05-25T02:01:10.813Z,51.90
2018-05-25T02:03:39.894Z,51.90
2018-05-25T02:06:08.120Z,51.90
2018-05-25T02:08:36.367Z,51.90
2018-05-25T02:11:04.681Z,51.90
2018-05-25T02:13:32.876Z,51.90
2018-05-25T02:16:01.119Z,51.90
2018-05-25T02:18:29.360Z,51.80
2018-05-25T02:20:57.616Z,51.80
2018-05-25T02:23:25.845Z,51.80
2018-05-25T02:25:54.118Z,51.80
2018-05-25T02:28:22.370Z,51.80
2018-05-25T02:30:50.605Z,51.70
2018-05-25T02:33:18.863Z,52.00
2018-05-25T02:35:47.877Z,51.60
2018-05-25T02:38:16.891Z,51.70
2018-05-25T02:40:45.152Z,51.70
2018-05-25T02:43:13.392Z,51.70
2018-05-25T02:45:41.650Z,51.70
2018-05-25T02:48:09.937Z,51.60
2018-05-25T02:50:38.173Z,51.50
2018-05-25T02:53:06.419Z,51.60
2018-05-25T02:55:35.453Z,51.80
2018-05-25T02:58:04.516Z,51.70
2018-05-25T03:00:33.517Z,51.50
2018-05-25T03:03:01.761Z,51.50
2018-05-25T03:05:30.011Z,51.40
2018-05-25T03:07:58.260Z,51.40
2018-05-25T03:10:26.520Z,51.50
2018-05-25T03:12:54.788Z,51.40
2018-05-25T03:15:23.788Z,51.30
2018-05-25T03:17:52.044Z,51.30
2018-05-25T03:20:21.114Z,51.20
2018-05-25T03:22:49.364Z,51.20
2018-05-25T03:25:17.624Z,51.20
2018-05-25T03:27:45.864Z,51.10
2018-05-25T03:30:14.120Z,51.20
2018-05-25T03:32:42.359Z,51.40
2018-05-25T03:35:10.618Z,51.20
2018-05-25T03:37:38.853Z,51.10
2018-05-25T03:40:07.112Z,51.20
2018-05-25T03:42:35.346Z,51.10
2018-05-25T03:45:03.622Z,51.00
2018-05-25T03:47:31.850Z,51.00
2018-05-25T03:50:00.099Z,51.00
2018-05-25T03:52:28.368Z,51.00
2018-05-25T03:54:57.147Z,51.00
2018-05-25T03:57:25.481Z,50.90
2018-05-25T04:00:05.400Z,50.70
2018-05-25T04:02:34.467Z,50.70
2018-05-25T04:05:02.719Z,50.60
2018-05-25T04:07:31.742Z,50.60
2018-05-25T04:09:59.975Z,50.50
2018-05-25T04:12:28.632Z,50.60
2018-05-25T04:14:56.891Z,50.70
2018-05-25T04:17:25.119Z,51.30
2018-05-25T04:19:54.147Z,51.30
2018-05-25T04:22:22.429Z,50.50
2018-05-25T04:24:50.697Z,50.70
2018-05-25T04:27:19.705Z,50.50
2018-05-25T04:29:48.036Z,50.50
2018-05-25T04:32:16.296Z,51.30
2018-05-25T04:34:44.540Z,50.50
2018-05-25T04:37:12.810Z,50.40
2018-05-25T04:39:41.064Z,50.50
2018-05-25T04:42:09.332Z,50.50
2018-05-25T04:44:38.341Z,51.20
2018-05-25T04:47:06.618Z,50.40
2018-05-25T04:49:34.871Z,50.50
2018-05-25T04:52:03.885Z,50.50
2018-05-25T04:54:32.910Z,50.60
2018-05-25T04:57:01.153Z,50.60
2018-05-25T04:59:30.180Z,50.70
2018-05-25T05:01:58.453Z,50.60
2018-05-25T05:04:26.695Z,50.60
2018-05-25T05:06:55.729Z,50.50
2018-05-25T05:09:23.969Z,50.50
2018-05-25T05:11:53.000Z,50.70
2018-05-25T05:14:21.230Z,50.70
2018-05-25T05:16:50.280Z,50.80
2018-05-25T05:19:18.533Z,50.70
2018-05-25T05:21:47.320Z,50.60
2018-05-25T05:24:15.620Z,50.60
2018-05-25T05:26:43.899Z,50.70
2018-05-25T05:29:13.495Z,51.00
2018-05-25T05:31:41.740Z,51.00
2018-05-25T05:34:10.014Z,51.10
2018-05-25T05:36:39.056Z,50.90
2018-05-25T05:39:07.323Z,50.90
2018-05-25T05:41:35.588Z,51.00
2018-05-25T05:44:03.855Z,51.20
2018-05-25T05:46:32.125Z,51.20
2018-05-25T05:49:00.380Z,51.30
2018-05-25T05:51:29.388Z,51.40
2018-05-25T05:53:58.408Z,51.30
2018-05-25T05:56:26.663Z,51.30
2018-05-25T05:58:55.997Z,51.60
2018-05-25T06:01:24.219Z,51.50
2018-05-25T06:03:53.251Z,51.60
2018-05-25T06:06:21.520Z,51.50
2018-05-25T06:08:49.764Z,51.80
2018-05-25T06:11:18.032Z,51.90
2018-05-25T06:13:46.264Z,52.00
2018-05-25T06:16:14.532Z,51.80
2018-05-25T06:18:43.519Z,51.50
2018-05-25T06:21:11.858Z,51.40
2018-05-25T06:23:40.125Z,51.40
2018-05-25T06:26:09.293Z,51.20
2018-05-25T06:28:37.553Z,51.40
2018-05-25T06:31:05.815Z,51.50
2018-05-25T06:33:34.072Z,51.40
2018-05-25T06:36:03.141Z,51.50
2018-05-25T06:38:31.405Z,51.50
2018-05-25T06:40:59.633Z,51.50
2018-05-25T06:43:28.704Z,51.40
2018-05-25T06:45:57.097Z,51.30
2018-05-25T06:48:25.328Z,51.20
2018-05-25T06:50:53.588Z,51.70
2018-05-25T06:53:21.824Z,51.50
2018-05-25T06:55:50.860Z,51.60
2018-05-25T06:58:19.090Z,51.60
2018-05-25T07:00:48.117Z,51.60
2018-05-25T07:03:16.392Z,51.50
2018-05-25T07:05:44.638Z,51.10
2018-05-25T07:08:13.664Z,51.10
2018-05-25T07:10:41.929Z,51.10
2018-05-25T07:13:10.925Z,51.60
2018-05-25T07:15:39.189Z,51.50
2018-05-25T07:18:08.192Z,51.50
2018-05-25T07:20:36.456Z,51.50
2018-05-25T07:23:05.480Z,52.00
2018-05-25T07:25:33.739Z,52.00
2018-05-25T07:28:02.021Z,51.90
2018-05-25T07:30:31.040Z,51.50
2018-05-25T07:33:00.017Z,51.50
2018-05-25T07:35:28.252Z,51.60
2018-05-25T07:37:56.501Z,51.60
2018-05-25T07:40:24.758Z,51.70
2018-05-25T07:42:53.002Z,51.90
2018-05-25T07:45:22.611Z,52.50
2018-05-25T07:47:51.640Z,52.20
2018-05-25T07:50:19.893Z,52.20
2018-05-25T07:52:48.182Z,51.80
2018-05-25T07:55:16.424Z,51.80
2018-05-25T07:57:45.460Z,51.90
2018-05-25T08:00:13.752Z,51.90
2018-05-25T08:02:43.470Z,51.90
2018-05-25T08:05:11.914Z,51.90
2018-05-25T08:07:41.322Z,52.00
2018-05-25T08:10:09.606Z,51.90
2018-05-25T08:12:37.924Z,51.80
2018-05-25T08:15:06.151Z,51.70
2018-05-25T08:17:34.406Z,51.80
2018-05-25T08:20:03.429Z,51.70
2018-05-25T08:22:31.699Z,51.60
2018-05-25T08:24:59.946Z,51.40
2018-05-25T08:27:28.954Z,51.50
2018-05-25T08:29:57.218Z,51.50
2018-05-25T08:32:26.225Z,51.10
2018-05-25T08:34:54.466Z,51.00
2018-05-25T08:37:22.807Z,50.80
2018-05-25T08:39:51.075Z,50.90
2018-05-25T08:42:19.347Z,50.90
2018-05-25T08:44:47.581Z,51.20
2018-05-25T08:47:15.847Z,50.70
2018-05-25T08:49:44.102Z,50.30
2018-05-25T08:52:12.381Z,49.60
2018-05-25T08:54:40.667Z,49.60
2018-05-25T08:57:08.919Z,49.70
2018-05-25T08:59:37.176Z,49.70
2018-05-25T09:02:05.419Z,49.00
2018-05-25T09:04:33.684Z,49.10
2018-05-25T09:07:01.922Z,49.20
2018-05-25T09:09:30.183Z,49.00
2018-05-25T09:11:58.429Z,49.30
2018-05-25T09:14:26.744Z,48.40
2018-05-25T09:16:54.993Z,48.80
2018-05-25T09:19:24.005Z,48.20
2018-05-25T09:21:52.351Z,48.20
2018-05-25T09:24:20.576Z,48.20
2018-05-25T09:26:48.826Z,48.50
2018-05-25T09:29:17.862Z,48.70
2018-05-25T09:31:46.112Z,48.60
2018-05-25T09:34:15.176Z,47.70
2018-05-25T09:36:43.405Z,46.90
2018-05-25T09:39:11.644Z,47.10
2018-05-25T09:41:39.900Z,46.80
2018-05-25T09:44:08.899Z,47.00
2018-05-25T09:46:38.045Z,46.50
2018-05-25T09:49:06.282Z,45.80
2018-05-25T09:51:35.295Z,45.50
2018-05-25T09:54:03.562Z,45.50
2018-05-25T09:56:31.792Z,45.30
2018-05-25T09:59:00.057Z,45.50
2018-05-25T10:01:28.343Z,45.00
2018-05-25T10:03:56.609Z,44.30
2018-05-25T10:06:24.848Z,44.70
2018-05-25T10:08:53.138Z,44.70
2018-05-25T10:11:21.364Z,43.60
2018-05-25T10:13:49.634Z,43.40
2018-05-25T10:16:17.918Z,42.90
2018-05-25T10:18:46.143Z,42.80
2018-05-25T10:21:15.261Z,42.00
2018-05-25T10:23:43.540Z,42.40
2018-05-25T10:26:11.792Z,42.90
2018-05-25T10:28:40.082Z,41.60
2018-05-25T10:31:09.081Z,42.60
2018-05-25T10:33:37.321Z,42.50
2018-05-25T10:36:05.581Z,42.10
2018-05-25T10:38:34.619Z,41.60
2018-05-25T10:41:02.942Z,41.60
2018-05-25T10:43:31.128Z,41.60
2018-05-25T10:46:01.474Z,41.60
2018-05-25T10:48:30.478Z,41.90
2018-05-25T10:50:58.684Z,41.90
2018-05-25T10:53:26.939Z,41.80
2018-05-25T10:55:55.221Z,42.70
2018-05-25T10:58:23.441Z,42.00
2018-05-25T11:00:52.453Z,42.10
2018-05-25T11:03:20.663Z,42.00
2018-05-25T11:05:48.920Z,41.90
2018-05-25T11:08:17.154Z,42.00
2018-05-25T11:10:46.889Z,41.60
2018-05-25T11:13:15.992Z,41.70
2018-05-25T11:15:44.289Z,41.70
2018-05-25T11:18:12.518Z,41.90
2018-05-25T11:20:40.810Z,42.10
2018-05-25T11:23:09.803Z,42.00
2018-05-25T11:25:38.803Z,40.90
2018-05-25T11:28:07.029Z,40.90
2018-05-25T11:30:35.265Z,40.70
2018-05-25T11:33:03.480Z,40.70
2018-05-25T11:35:31.728Z,40.50
2018-05-25T11:38:00.058Z,41.10
2018-05-25T11:40:28.279Z,41.20
2018-05-25T11:42:56.560Z,40.60
2018-05-25T11:45:24.791Z,40.40
2018-05-25T11:47:53.075Z,40.90
2018-05-25T11:50:22.082Z,40.30
2018-05-25T11:52:50.339Z,40.20
2018-05-25T11:55:19.345Z,40.20
2018-05-25T11:57:47.587Z,39.90
2018-05-25T12:00:16.532Z,40.00
2018-05-25T12:02:44.755Z,39.70
2018-05-25T12:05:13.008Z,39.60
2018-05-25T12:07:41.227Z,39.10
2018-05-25T12:10:09.483Z,40.00
2018-05-25T12:12:37.713Z,41.00
2018-05-25T12:15:05.953Z,40.20
2018-05-25T12:17:34.200Z,41.00
2018-05-25T12:20:02.439Z,39.90
2018-05-25T12:22:30.676Z,40.20
2018-05-25T12:24:58.904Z,38.80
2018-05-25T12:27:27.236Z,39.20
2018-05-25T12:29:56.199Z,38.40
2018-05-25T12:32:24.433Z,38.10
2018-05-25T12:34:52.668Z,37.70
2018-05-25T12:37:20.892Z,37.00
2018-05-25T12:39:49.155Z,37.00
2018-05-25T12:42:18.161Z,36.80
2018-05-25T12:44:58.268Z,36.70
2018-05-25T12:47:26.565Z,36.90
2018-05-25T12:49:54.806Z,35.80
2018-05-25T12:52:23.115Z,35.30
2018-05-25T12:54:51.308Z,35.40
2018-05-25T12:57:20.316Z,35.20
2018-05-25T12:59:48.603Z,35.20
2018-05-25T13:02:16.844Z,37.30
2018-05-25T13:04:45.842Z,37.80
2018-05-25T13:07:14.856Z,37.80
2018-05-25T13:09:43.108Z,37.70
2018-05-25T13:12:12.089Z,38.00
2018-05-25T13:14:40.336Z,37.90
2018-05-25T13:17:08.639Z,38.20
2018-05-25T13:19:36.873Z,37.50
2018-05-25T13:22:05.093Z,37.40
2018-05-25T13:24:33.299Z,38.30
2018-05-25T13:27:01.571Z,38.20
2018-05-25T13:29:30.637Z,38.30
2018-05-25T13:31:58.839Z,38.30
2018-05-25T13:34:27.843Z,38.60
2018-05-25T13:36:56.857Z,38.30
2018-05-25T13:39:25.081Z,38.20
2018-05-25T13:41:53.346Z,38.10
2018-05-25T13:44:21.556Z,38.40
2018-05-25T13:46:49.817Z,38.40
2018-05-25T13:49:18.073Z,38.20
2018-05-25T13:51:46.316Z,38.70
2018-05-25T13:54:14.551Z,38.50
2018-05-25T13:56:43.566Z,38.90
2018-05-25T13:59:11.783Z,38.90
2018-05-25T14:01:40.030Z,39.30
2018-05-25T14:04:08.299Z,38.40
2018-05-25T14:06:36.533Z,37.60
2018-05-25T14:09:06.567Z,38.00
2018-05-25T14:11:35.552Z,37.20
2018-05-25T14:14:04.637Z,37.20
2018-05-25T14:16:32.846Z,37.70
2018-05-25T14:19:01.089Z,37.30
2018-05-25T14:21:29.550Z,37.60
2018-05-25T14:23:57.777Z,38.10
2018-05-25T14:26:26.781Z,38.20
2018-05-25T14:28:55.017Z,38.20
2018-05-25T14:31:23.312Z,37.10
2018-05-25T14:33:52.304Z,37.70
2018-05-25T14:36:21.324Z,37.80
2018-05-25T14:38:49.555Z,37.80
2018-05-25T14:41:17.856Z,37.70
2018-05-25T14:43:46.057Z,36.90
2018-05-25T14:46:14.324Z,36.90
2018-05-25T14:48:43.384Z,37.60
2018-05-25T14:51:12.332Z,37.40
2018-05-25T14:53:40.602Z,37.30
2018-05-25T14:56:09.567Z,37.00
2018-05-25T14:58:37.804Z,37.00
2018-05-25T15:01:06.039Z,37.40
2018-05-25T15:03:34.274Z,38.00
2018-05-25T15:06:02.531Z,38.00
2018-05-25T15:08:30.723Z,37.60
2018-05-25T15:10:58.955Z,37.80
2018-05-25T15:13:27.191Z,36.80
2018-05-25T15:15:56.208Z,37.10
2018-05-25T15:18:24.459Z,37.10
2018-05-25T15:20:53.508Z,36.80
2018-05-25T15:23:21.756Z,36.70
2018-05-25T15:25:50.000Z,36.80
2018-05-25T15:28:18.252Z,37.20
2018-05-25T15:30:46.596Z,36.30
2018-05-25T15:33:14.740Z,36.90
2018-05-25T15:35:43.755Z,37.30
2018-05-25T15:38:11.995Z,36.50
2018-05-25T15:40:40.207Z,36.90
2018-05-25T15:43:08.477Z,36.90
2018-05-25T15:45:37.497Z,37.00
2018-05-25T15:48:05.741Z,36.90
2018-05-25T15:50:33.966Z,36.90
2018-05-25T15:53:02.208Z,36.80
2018-05-25T15:55:30.589Z,37.60
2018-05-25T15:57:58.840Z,37.40
2018-05-25T16:00:27.844Z,37.10
2018-05-25T16:02:56.059Z,37.10
2018-05-25T16:05:24.305Z,37.00
2018-05-25T16:07:52.566Z,36.80
2018-05-25T16:10:21.563Z,36.70
2018-05-25T16:12:49.793Z,36.60
2018-05-25T16:15:18.065Z,36.60
2018-05-25T16:17:46.298Z,36.90
2018-05-25T16:20:14.554Z,37.20
2018-05-25T16:22:42.782Z,36.90
2018-05-25T16:25:11.004Z,37.00
2018-05-25T16:27:40.011Z,37.10
2018-05-25T16:30:09.057Z,36.90
2018-05-25T16:32:37.305Z,36.90
2018-05-25T16:35:05.544Z,36.20
2018-05-25T16:37:34.544Z,36.30
2018-05-25T16:40:03.628Z,36.40
2018-05-25T16:42:32.616Z,36.50
2018-05-25T16:45:00.826Z,36.50
2018-05-25T16:47:29.089Z,36.60
2018-05-25T16:49:58.103Z,36.20
2018-05-25T16:52:26.343Z,36.20
2018-05-25T16:54:55.341Z,36.60
2018-05-25T16:57:23.605Z,36.00
2018-05-25T16:59:51.800Z,36.20
2018-05-25T17:02:20.804Z,36.40
2018-05-25T17:04:49.052Z,36.40
2018-05-25T17:07:17.280Z,36.40
2018-05-25T17:09:45.522Z,36.20
2018-05-25T17:12:14.528Z,37.10
2018-05-25T17:14:43.517Z,37.50
2018-05-25T17:17:12.508Z,37.70
2018-05-25T17:19:41.520Z,37.90
2018-05-25T17:22:09.781Z,37.80
2018-05-25T17:24:38.780Z,38.00
2018-05-25T17:27:07.033Z,38.00
2018-05-25T17:29:35.248Z,38.10
2018-05-25T17:32:03.474Z,38.10
2018-05-25T17:34:33.207Z,38.10
2018-05-25T17:37:02.211Z,38.10
2018-05-25T17:39:30.448Z,38.00
2018-05-25T17:41:58.722Z,38.20
2018-05-25T17:44:26.920Z,38.80
2018-05-25T17:46:55.912Z,38.70
2018-05-25T17:49:25.046Z,38.30
2018-05-25T17:51:53.289Z,38.20
2018-05-25T17:54:21.529Z,38.20
2018-05-25T17:56:49.787Z,38.40
2018-05-25T17:59:18.063Z,38.50
2018-05-25T18:01:46.317Z,38.60
2018-05-25T18:04:14.581Z,38.70
2018-05-25T18:06:43.679Z,38.80
2018-05-25T18:09:11.881Z,38.80
2018-05-25T18:11:40.143Z,38.90
2018-05-25T18:14:08.450Z,39.00
2018-05-25T18:16:37.381Z,39.60
2018-05-25T18:19:05.698Z,39.10
2018-05-25T18:21:33.946Z,39.10
2018-05-25T18:24:02.213Z,39.30
2018-05-25T18:26:30.447Z,39.30
2018-05-25T18:28:58.670Z,39.50
2018-05-25T18:31:27.702Z,39.70
2018-05-25T18:33:56.073Z,39.70
2018-05-25T18:36:24.324Z,39.80
2018-05-25T18:38:53.303Z,40.60
2018-05-25T18:41:21.568Z,39.90
2018-05-25T18:43:49.804Z,39.80
2018-05-25T18:46:18.066Z,40.00
2018-05-25T18:48:46.367Z,40.00
2018-05-25T18:51:15.388Z,40.10
2018-05-25T18:53:43.968Z,40.00
2018-05-25T18:56:12.221Z,40.10
2018-05-25T18:58:40.487Z,40.20
2018-05-25T19:01:08.757Z,40.40
2018-05-25T19:03:36.966Z,40.50
2018-05-25T19:06:05.212Z,40.40
2018-05-25T19:08:33.452Z,40.40
2018-05-25T19:11:01.673Z,40.40
2018-05-25T19:13:29.878Z,40.60
2018-05-25T19:15:58.097Z,40.40
2018-05-25T19:18:26.327Z,40.30
2018-05-25T19:20:54.567Z,40.50
2018-05-25T19:23:22.838Z,40.70
2018-05-25T19:25:51.841Z,40.70
2018-05-25T19:28:20.058Z,40.70
2018-05-25T19:30:48.282Z,40.60
2018-05-25T19:33:16.520Z,40.60
2018-05-25T19:35:44.724Z,40.70
2018-05-25T19:38:12.963Z,40.80
2018-05-25T19:40:41.201Z,40.70
2018-05-25T19:43:09.440Z,40.70
2018-05-25T19:45:38.447Z,40.90
2018-05-25T19:48:06.666Z,40.90
2018-05-25T19:50:34.865Z,41.10
2018-05-25T19:53:03.113Z,41.20
2018-05-25T19:55:31.331Z,41.30
2018-05-25T19:58:00.368Z,41.50
2018-05-25T20:00:28.614Z,41.50
2018-05-25T20:02:57.613Z,41.60
2018-05-25T20:05:25.852Z,41.60
2018-05-25T20:07:54.101Z,41.80
2018-05-25T20:10:22.346Z,41.70
2018-05-25T20:12:50.618Z,41.70
2018-05-25T20:15:18.900Z,42.30
2018-05-25T20:17:47.112Z,41.80
2018-05-25T20:20:16.127Z,41.90
2018-05-25T20:22:44.366Z,41.80
2018-05-25T20:25:12.592Z,42.00
2018-05-25T20:27:40.827Z,42.00
2018-05-25T20:30:09.134Z,42.20
2018-05-25T20:32:37.333Z,42.30
2018-05-25T20:35:06.374Z,42.70
2018-05-25T20:37:35.315Z,42.80
2018-05-25T20:40:04.314Z,42.90
2018-05-25T20:42:33.295Z,43.00
2018-05-25T20:45:02.300Z,43.00
2018-05-25T20:47:31.312Z,43.10
2018-05-25T20:49:59.546Z,43.00
2018-05-25T20:52:27.762Z,43.00
2018-05-25T20:54:56.038Z,43.20
2018-05-25T20:57:24.320Z,43.30
2018-05-25T20:59:52.594Z,43.50
2018-05-25T21:02:20.818Z,43.70
2018-05-25T21:04:49.704Z,43.60
2018-05-25T21:07:18.117Z,43.80
2018-05-25T21:09:47.124Z,43.90
2018-05-25T21:12:15.390Z,43.90
2018-05-25T21:14:43.675Z,44.00
2018-05-25T21:17:11.944Z,44.10
2018-05-25T21:19:40.905Z,44.10
2018-05-25T21:22:09.196Z,44.10
2018-05-25T21:24:37.507Z,44.20
2018-05-25T21:27:05.785Z,44.40
2018-05-25T21:29:34.028Z,44.40
2018-05-25T21:32:02.240Z,44.40
2018-05-25T21:34:30.524Z,44.70
2018-05-25T21:36:58.771Z,44.80
2018-05-25T21:39:27.759Z,45.10
2018-05-25T21:41:56.771Z,45.10
2018-05-25T21:44:25.113Z,45.10
2018-05-25T21:46:53.322Z,45.10
2018-05-25T21:49:22.226Z,45.20
2018-05-25T21:51:50.475Z,45.60
2018-05-25T21:54:19.505Z,45.90
2018-05-25T21:56:47.717Z,45.90
2018-05-25T21:59:15.955Z,45.90
2018-05-25T22:01:44.170Z,45.90
2018-05-25T22:04:12.386Z,46.10
2018-05-25T22:06:41.396Z,46.10
2018-05-25T22:09:09.637Z,46.10
2018-05-25T22:11:38.654Z,46.90
2018-05-25T22:14:06.873Z,46.30
2018-05-25T22:16:35.159Z,46.30
2018-05-25T22:19:03.363Z,46.50
2018-05-25T22:21:32.371Z,46.80
2018-05-25T22:24:01.361Z,47.10
2018-05-25T22:26:30.360Z,47.00
2018-05-25T22:28:58.601Z,47.00
2018-05-25T22:31:26.815Z,47.30
2018-05-25T22:33:55.046Z,47.30
2018-05-25T22:36:23.272Z,47.30
2018-05-25T22:38:51.518Z,47.50
2018-05-25T22:41:19.819Z,47.70
2018-05-25T22:43:59.892Z,47.80
2018-05-25T22:46:45.961Z,47.80
2018-05-25T22:49:32.091Z,48.40
2018-05-25T22:52:21.915Z,48.30
2018-05-25T22:54:51.876Z,48.50
2018-05-25T22:57:20.112Z,48.50
2018-05-25T22:59:48.344Z,48.70
2018-05-25T23:02:16.595Z,48.80
2018-05-25T23:04:44.871Z,49.00
2018-05-25T23:07:13.113Z,48.90
2018-05-25T23:09:41.354Z,49.10
2018-05-25T23:12:09.612Z,49.80
2018-05-25T23:14:37.836Z,49.30
2018-05-25T23:17:06.069Z,49.40
2018-05-25T23:19:34.306Z,49.60
2018-05-25T23:22:03.294Z,50.00
2018-05-25T23:24:32.290Z,50.20
2018-05-25T23:27:01.299Z,50.30
2018-05-25T23:29:29.541Z,50.20
2018-05-25T23:31:57.764Z,50.50
2018-05-25T23:34:26.004Z,50.50
2018-05-25T23:36:54.216Z,51.00
2018-05-25T23:39:22.451Z,51.40
2018-05-25T23:41:50.659Z,51.10
2018-05-25T23:44:18.904Z,51.10
2018-05-25T23:46:47.115Z,51.10
2018-05-25T23:49:15.346Z,51.10
2018-05-25T23:51:43.561Z,51.10
2018-05-25T23:54:11.833Z,51.10
2018-05-25T23:56:40.808Z,51.40
2018-05-25T23:59:09.791Z,51.30
